^^
B2 Weather Station Historical Data
Daily Summary for July 9, 2019 Units:  English    Metric   Both
Daily Weekly Monthly Yearly Custom
  High: Low: Average:
Temperature: 88.8 °F 58.5 °F 75.7 °F
Dew Point: 70.9 °F 57.1 °F 65.8 °F
Humidity: 95% 48% 74%
Wind Speed: 11.5mph 0mph 2.1mph
Wind Gust: 6.1mph - -
Wind- - SSE
Pressure: 30.03 in 29.91 in -
Precipitation: 0 in    
Historical Graphs
 
 
Tabular Data for July 9, 2019
Time Temperature Dew Point Pressure Wind Wind Speed Wind Gust Humidity Rainfall Rate (Hourly) solar
00:04 63.4 °F 61 °F 29.99 in Calm     92% 0 in 0.00 W/m2
00:09 63 °F 60.9 °F 29.99 in Calm     93% 0 in 0.00 W/m2
00:14 63.1 °F 61 °F 29.99 in Calm     93% 0 in 0.00 W/m2
00:19 63.1 °F 61.3 °F 29.99 in Calm     94% 0 in 0.00 W/m2
00:24 63 °F 61.2 °F 29.99 in Calm     94% 0 in 0.00 W/m2
00:29 63 °F 61.2 °F 30.00 in Calm     94% 0 in 0.00 W/m2
00:34 63 °F 61.2 °F 30.00 in Calm     94% 0 in 0.00 W/m2
00:39 63.1 °F 61.3 °F 30.00 in Calm     94% 0 in 0.00 W/m2
00:44 63.1 °F 61.3 °F 29.99 in Calm     94% 0 in 0.00 W/m2
00:49 62.8 °F 61 °F 29.99 in Calm     94% 0 in 0.00 W/m2
00:54 62.5 °F 60.4 °F 29.99 in Calm     93% 0 in 0.00 W/m2
00:59 62.1 °F 60.1 °F 29.99 in Calm     93% 0 in 0.00 W/m2
01:04 61.7 °F 59.7 °F 29.99 in Calm     93% 0 in 0.00 W/m2
01:09 61.6 °F 59.9 °F 29.99 in Calm     94% 0 in 0.00 W/m2
01:14 61.7 °F 60 °F 29.99 in Calm     94% 0 in 0.00 W/m2
01:19 62 °F 60.3 °F 29.99 in Calm     94% 0 in 0.00 W/m2
01:24 62 °F 60.3 °F 29.99 in Calm     94% 0 in 0.00 W/m2
01:29 62 °F 60.3 °F 29.99 in Calm     94% 0 in 0.00 W/m2
01:34 62.1 °F 60.7 °F 29.99 in Calm     95% 0 in 0.00 W/m2
01:39 62 °F 60.3 °F 29.99 in Calm     94% 0 in 0.00 W/m2
01:44 61.8 °F 60.1 °F 29.99 in Calm     94% 0 in 0.00 W/m2
01:49 61.9 °F 60.5 °F 29.99 in Calm     95% 0 in 0.00 W/m2
01:54 62 °F 60.6 °F 29.99 in Calm     95% 0 in 0.00 W/m2
01:59 62 °F 60.6 °F 29.99 in Calm     95% 0 in 0.00 W/m2
02:04 62.1 °F 60.7 °F 29.99 in Calm     95% 0 in 0.00 W/m2
02:09 62.1 °F 60.7 °F 29.99 in Calm     95% 0 in 0.00 W/m2
02:14 61.9 °F 60.5 °F 29.99 in Calm     95% 0 in 0.00 W/m2
02:19 61.9 °F 60.5 °F 29.98 in Calm     95% 0 in 0.00 W/m2
02:24 61.5 °F 59.8 °F 29.98 in Calm     94% 0 in 0.00 W/m2
02:29 61.4 °F 59.7 °F 29.98 in Calm     94% 0 in 0.00 W/m2
02:34 61.4 °F 60 °F 29.99 in Calm     95% 0 in 0.00 W/m2
02:39 61.2 °F 59.5 °F 29.99 in Calm     94% 0 in 0.00 W/m2
02:44 61.1 °F 59.7 °F 29.99 in Calm     95% 0 in 0.00 W/m2
02:49 61.2 °F 59.8 °F 29.99 in Calm     95% 0 in 0.00 W/m2
02:54 61.2 °F 59.8 °F 29.99 in Calm     95% 0 in 0.00 W/m2
02:59 61.4 °F 60 °F 29.99 in Calm     95% 0 in 0.00 W/m2
03:04 61.3 °F 59.9 °F 30.00 in Calm     95% 0 in 0.00 W/m2
03:09 61 °F 59.6 °F 29.99 in Calm     95% 0 in 0.00 W/m2
03:14 60.2 °F 58.5 °F 29.99 in Calm     94% 0 in 0.00 W/m2
03:19 59.7 °F 58 °F 29.99 in Calm     94% 0 in 0.00 W/m2
03:24 59.7 °F 58.3 °F 29.99 in Calm     95% 0 in 0.00 W/m2
03:29 60.1 °F 58.7 °F 29.99 in Calm     95% 0 in 0.00 W/m2
03:34 60.3 °F 58.9 °F 29.99 in Calm     95% 0 in 0.00 W/m2
03:39 60.4 °F 59 °F 29.99 in Calm     95% 0 in 0.00 W/m2
03:44 60 °F 58.6 °F 29.99 in Calm     95% 0 in 0.00 W/m2
03:49 59.8 °F 58.4 °F 29.99 in Calm     95% 0 in 0.00 W/m2
03:54 59.9 °F 58.5 °F 29.99 in Calm     95% 0 in 0.00 W/m2
03:59 60.1 °F 58.7 °F 29.99 in Calm     95% 0 in 0.00 W/m2
04:04 60.3 °F 58.9 °F 30.00 in Calm     95% 0 in 0.00 W/m2
04:09 60.4 °F 59 °F 30.00 in Calm     95% 0 in 0.00 W/m2
04:14 60.3 °F 58.9 °F 30.00 in Calm     95% 0 in 0.00 W/m2
04:19 60.1 °F 58.7 °F 30.00 in Calm     95% 0 in 0.00 W/m2
04:24 59.7 °F 58.3 °F 30.00 in Calm     95% 0 in 0.00 W/m2
04:29 59.3 °F 57.9 °F 30.00 in Calm     95% 0 in 0.00 W/m2
04:34 59.1 °F 57.7 °F 30.00 in Calm     95% 0 in 0.00 W/m2
04:39 59.3 °F 57.9 °F 30.00 in Calm     95% 0 in 0.00 W/m2
04:44 59 °F 57.6 °F 30.00 in Calm     95% 0 in 0.00 W/m2
04:49 58.8 °F 57.4 °F 30.00 in Calm     95% 0 in 0.00 W/m2
04:54 58.7 °F 57.3 °F 30.01 in Calm     95% 0 in 0.00 W/m2
04:59 58.8 °F 57.4 °F 30.01 in Calm     95% 0 in 0.00 W/m2
05:04 58.8 °F 57.4 °F 30.01 in Calm     95% 0 in 0.00 W/m2
05:09 58.9 °F 57.5 °F 30.01 in Calm     95% 0 in 0.00 W/m2
05:14 58.7 °F 57.3 °F 30.02 in Calm     95% 0 in 0.00 W/m2
05:19 58.8 °F 57.4 °F 30.02 in Calm     95% 0 in 0.00 W/m2
05:24 59 °F 57.6 °F 30.02 in Calm     95% 0 in 0.00 W/m2
05:29 58.6 °F 57.2 °F 30.02 in Calm     95% 0 in 0.00 W/m2
05:34 58.5 °F 57.1 °F 30.02 in Calm     95% 0 in 7.00 W/m2
05:39 58.6 °F 57.2 °F 30.02 in Calm     95% 0 in 11.00 W/m2
05:44 58.6 °F 57.2 °F 30.02 in Calm     95% 0 in 16.00 W/m2
05:49 58.7 °F 57.3 °F 30.02 in Calm     95% 0 in 21.00 W/m2
05:54 58.7 °F 57.3 °F 30.02 in Calm     95% 0 in 25.00 W/m2
05:59 59.7 °F 58.3 °F 30.02 in Calm     95% 0 in 30.00 W/m2
06:04 60.3 °F 58.9 °F 30.02 in Calm     95% 0 in 37.00 W/m2
06:09 60.7 °F 59.3 °F 30.02 in Calm     95% 0 in 46.00 W/m2
06:14 61.1 °F 59.7 °F 30.02 in Calm     95% 0 in 53.00 W/m2
06:19 61.7 °F 60.3 °F 30.02 in Calm     95% 0 in 62.00 W/m2
06:24 62.3 °F 60.8 °F 30.02 in Calm     95% 0 in 76.00 W/m2
06:29 62.8 °F 61.3 °F 30.02 in Calm     95% 0 in 79.00 W/m2
06:34 63.5 °F 62 °F 30.02 in Calm     95% 0 in 97.00 W/m2
06:39 64.1 °F 62.6 °F 30.02 in Calm     95% 0 in 109.00 W/m2
06:44 64.6 °F 63.1 °F 30.02 in Calm     95% 0 in 125.00 W/m2
06:49 64.9 °F 63.1 °F 30.02 in Calm     94% 0 in 123.00 W/m2
06:54 65.3 °F 63.2 °F 30.02 in Calm     93% 0 in 144.00 W/m2
06:59 65.7 °F 63.3 °F 30.02 in Calm     92% 0 in 149.00 W/m2
07:04 66.1 °F 63.7 °F 30.02 in Calm     92% 0 in 158.00 W/m2
07:09 66.5 °F 64.1 °F 30.02 in Calm     92% 0 in 199.00 W/m2
07:14 67 °F 64 °F 30.02 in Calm     90% 0 in 216.00 W/m2
07:19 67.5 °F 64.5 °F 30.02 in Calm     90% 0 in 221.00 W/m2
07:24 67.9 °F 64.2 °F 30.02 in SSE 2 mph 1.7 mph 88% 0 in 244.00 W/m2
07:29 68.2 °F 64.2 °F 30.02 in SE 3.5 mph 1.8 mph 87% 0 in 278.00 W/m2
07:34 68.6 °F 64.6 °F 30.02 in SE 3 mph 1 mph 87% 0 in 246.00 W/m2
07:39 69 °F 64.6 °F 30.02 in SE 3.5 mph 2.5 mph 86% 0 in 278.00 W/m2
07:44 69.4 °F 65 °F 30.03 in SE 3.5 mph   86% 0 in 309.00 W/m2
07:49 70 °F 65.3 °F 30.03 in SE 1.2 mph   85% 0 in 348.00 W/m2
07:54 70.7 °F 65.6 °F 30.02 in Calm     84% 0 in 323.00 W/m2
07:59 71.4 °F 66 °F 30.03 in Calm     83% 0 in 355.00 W/m2
08:04 71.9 °F 65.4 °F 30.03 in SE 3.5 mph 2.4 mph 80% 0 in 255.00 W/m2
08:09 72.1 °F 65.9 °F 30.03 in SE 4 mph 1 mph 81% 0 in 283.00 W/m2
08:14 72.5 °F 66.7 °F 30.02 in Calm     82% 0 in 388.00 W/m2
08:19 73.2 °F 66.3 °F 30.03 in ESE 3.5 mph 0.8 mph 79% 0 in 376.00 W/m2
08:24 73.6 °F 66.3 °F 30.03 in SE 4.6 mph 1.3 mph 78% 0 in 360.00 W/m2
08:29 73.9 °F 67 °F 30.03 in Calm     79% 0 in 448.00 W/m2
08:34 74.4 °F 67.5 °F 30.03 in ESE 3.5 mph   79% 0 in 431.00 W/m2
08:39 75.1 °F 68.1 °F 30.03 in East 4.6 mph 3.4 mph 79% 0 in 427.00 W/m2
08:44 75.6 °F 67.9 °F 30.02 in SE 4 mph 0.9 mph 77% 0 in 432.00 W/m2
08:49 75.9 °F 67.4 °F 30.02 in North 4 mph 3.1 mph 75% 0 in 436.00 W/m2
08:54 76.1 °F 67.2 °F 30.02 in ESE 3.5 mph 3.4 mph 74% 0 in 431.00 W/m2
08:59 76.5 °F 67.6 °F 30.02 in SE 4.6 mph 3.7 mph 74% 0 in 427.00 W/m2
09:04 76.8 °F 67.9 °F 30.02 in ESE 5.8 mph 1.7 mph 74% 0 in 448.00 W/m2
09:09 77.1 °F 68.6 °F 30.02 in ESE 3 mph 1.5 mph 75% 0 in 462.00 W/m2
09:14 77.5 °F 67.8 °F 30.02 in ESE 4 mph 2.8 mph 72% 0 in 515.00 W/m2
09:19 77.9 °F 68.1 °F 30.02 in SE 4.6 mph 1.4 mph 72% 0 in 547.00 W/m2
09:24 78.2 °F 68 °F 30.02 in SSE 3.5 mph 0.8 mph 71% 0 in 571.00 W/m2
09:29 78.5 °F 68.3 °F 30.02 in ESE 2.3 mph 0.8 mph 71% 0 in 575.00 W/m2
09:34 79 °F 68.8 °F 30.02 in ESE 1.2 mph 0.1 mph 71% 0 in 575.00 W/m2
09:39 79.5 °F 69.3 °F 30.02 in Calm   0.6 mph 71% 0 in 570.00 W/m2
09:44 79.8 °F 68.7 °F 30.02 in Calm   0.1 mph 69% 0 in 564.00 W/m2
09:49 80.3 °F 69.2 °F 30.01 in Calm     69% 0 in 557.00 W/m2
09:54 80.7 °F 68.7 °F 30.01 in SE 3.5 mph 0.8 mph 67% 0 in 557.00 W/m2
09:59 81 °F 69.4 °F 30.01 in ESE 4 mph 2.6 mph 68% 0 in 557.00 W/m2
10:04 81.2 °F 67.9 °F 30.01 in SSE 2.3 mph   64% 0 in 561.00 W/m2
10:09 81.4 °F 67.6 °F 30.01 in SE 4 mph 0.7 mph 63% 0 in 573.00 W/m2
10:14 81.7 °F 67.9 °F 30.00 in Calm   1.2 mph 63% 0 in 591.00 W/m2
10:19 82.3 °F 68.9 °F 30.00 in ESE 4 mph 4 mph 64% 0 in 617.00 W/m2
10:24 82.7 °F 68.8 °F 30.00 in North 5 mph 0.6 mph 63% 0 in 656.00 W/m2
10:29 82.8 °F 68.4 °F 30.00 in ESE 1.2 mph 1.4 mph 62% 0 in 694.00 W/m2
10:34 83.2 °F 68.8 °F 30.00 in ESE 4 mph 2.1 mph 62% 0 in 731.00 W/m2
10:39 83.4 °F 67.6 °F 29.99 in Calm   0.1 mph 59% 0 in 770.00 W/m2
10:44 83.7 °F 67.8 °F 30.00 in SE 1.2 mph   59% 0 in 784.00 W/m2
10:49 84 °F 67.1 °F 30.00 in SSE 3.5 mph   57% 0 in 786.00 W/m2
10:54 84.3 °F 66.4 °F 29.99 in SE 5.8 mph 3.4 mph 55% 0 in 798.00 W/m2
10:59 84.5 °F 67.6 °F 29.99 in SE 4 mph 2.1 mph 57% 0 in 802.00 W/m2
11:04 84.5 °F 67.1 °F 29.99 in SE 4.6 mph 1.2 mph 56% 0 in 809.00 W/m2
11:09 84.4 °F 67 °F 29.99 in East 4.6 mph 2.9 mph 56% 0 in 830.00 W/m2
11:14 84.6 °F 68.7 °F 29.99 in ESE 2.3 mph 3 mph 59% 0 in 842.00 W/m2
11:19 84.9 °F 69 °F 29.99 in SE 1.2 mph   59% 0 in 837.00 W/m2
11:24 84.9 °F 68.5 °F 29.98 in East 2 mph 0.2 mph 58% 0 in 856.00 W/m2
11:29 85.2 °F 68.8 °F 29.98 in ESE 3.5 mph 2.1 mph 58% 0 in 835.00 W/m2
11:34 85.5 °F 68.5 °F 29.98 in SE 1.2 mph 1.1 mph 57% 0 in 816.00 W/m2
11:39 85.4 °F 66.9 °F 29.98 in Calm   1.8 mph 54% 0 in 831.00 W/m2
11:44 85.4 °F 66.3 °F 29.98 in East 1.2 mph 1.7 mph 53% 0 in 814.00 W/m2
11:49 85.3 °F 65.7 °F 29.98 in East 4.6 mph 0.2 mph 52% 0 in 814.00 W/m2
11:54 85.4 °F 68.9 °F 29.98 in ESE 5 mph 3.2 mph 58% 0 in 879.00 W/m2
11:59 85.5 °F 67.5 °F 29.98 in East 8.1 mph 4.4 mph 55% 0 in 881.00 W/m2
12:04 85.5 °F 67 °F 29.98 in SE 6.9 mph 4.3 mph 54% 0 in 875.00 W/m2
12:09 85.3 °F 66.8 °F 29.98 in SE 5 mph 3.2 mph 54% 0 in 847.00 W/m2
12:14 85.3 °F 68.3 °F 29.98 in SE 6.9 mph 1.9 mph 57% 0 in 860.00 W/m2
12:19 85.5 °F 69 °F 29.97 in SE 3.5 mph 4.4 mph 58% 0 in 805.00 W/m2
12:24 85.3 °F 66.8 °F 29.97 in North 5.8 mph 4.2 mph 54% 0 in 809.00 W/m2
12:29 84.9 °F 66.4 °F 29.97 in South 2 mph   54% 0 in 877.00 W/m2
12:34 85 °F 67.5 °F 29.97 in SE 6.9 mph 3.8 mph 56% 0 in 882.00 W/m2
12:39 85.4 °F 67.9 °F 29.97 in South 3.5 mph 1.8 mph 56% 0 in 907.00 W/m2
12:44 85.6 °F 69.1 °F 29.96 in SE 3.5 mph   58% 0 in 912.00 W/m2
12:49 85.8 °F 68.8 °F 29.96 in Calm     57% 0 in 840.00 W/m2
12:54 86.3 °F 68.2 °F 29.96 in SSE 3.5 mph 0.2 mph 55% 0 in 919.00 W/m2
12:59 86.3 °F 67.7 °F 29.96 in ESE 3.5 mph 2.4 mph 54% 0 in 919.00 W/m2
13:04 86.2 °F 69.2 °F 29.96 in ESE 3.5 mph   57% 0 in 891.00 W/m2
13:09 86.2 °F 65.9 °F 29.96 in North 3.5 mph 1.5 mph 51% 0 in 914.00 W/m2
13:14 86.4 °F 68.3 °F 29.95 in ESE 3.5 mph   55% 0 in 909.00 W/m2
13:19 86.5 °F 68.9 °F 29.95 in ESE 5 mph 0.9 mph 56% 0 in 911.00 W/m2
13:24 86.6 °F 69 °F 29.95 in SE 3 mph 2.3 mph 56% 0 in 889.00 W/m2
13:29 86.8 °F 69.2 °F 29.95 in SE 4.6 mph 4.1 mph 56% 0 in 895.00 W/m2
13:34 86.8 °F 67.6 °F 29.95 in Calm     53% 0 in 884.00 W/m2
13:39 86.9 °F 69.3 °F 29.95 in ESE 8.1 mph 4.2 mph 56% 0 in 884.00 W/m2
13:44 86.7 °F 67.5 °F 29.94 in SE 6.9 mph 2.4 mph 53% 0 in 861.00 W/m2
13:49 86.7 °F 70.2 °F 29.94 in ENE 8.1 mph 1.8 mph 58% 0 in 881.00 W/m2
13:54 86.8 °F 69.2 °F 29.94 in SE 4.6 mph 2.2 mph 56% 0 in 881.00 W/m2
13:59 86.8 °F 68.2 °F 29.94 in SSE 8 mph 0.6 mph 54% 0 in 828.00 W/m2
14:04 86.7 °F 69.1 °F 29.94 in SE 3.5 mph   56% 0 in 838.00 W/m2
14:09 86.8 °F 68.7 °F 29.94 in SSE 3.5 mph 2.6 mph 55% 0 in 858.00 W/m2
14:14 87 °F 69.9 °F 29.94 in SSE 4.6 mph 1.8 mph 57% 0 in 853.00 W/m2
14:19 87.2 °F 69.6 °F 29.94 in SE 8.1 mph 4 mph 56% 0 in 844.00 W/m2
14:24 87.1 °F 68.4 °F 29.94 in SE 4.6 mph 4.3 mph 54% 0 in 791.00 W/m2
14:29 87.1 °F 69.5 °F 29.94 in South 5.8 mph 2.9 mph 56% 0 in 844.00 W/m2
14:34 87.1 °F 68.4 °F 29.94 in SSE 3.5 mph 1 mph 54% 0 in 823.00 W/m2
14:39 87.3 °F 69.7 °F 29.94 in SE 6 mph 3.3 mph 56% 0 in 819.00 W/m2
14:44 87.5 °F 68.8 °F 29.94 in North 6.9 mph 4 mph 54% 0 in 823.00 W/m2
14:49 87.7 °F 70.6 °F 29.94 in ESE 8 mph 1.7 mph 57% 0 in 802.00 W/m2
14:54 87.7 °F 67.3 °F 29.94 in SSE 11.5 mph 4.9 mph 51% 0 in 788.00 W/m2
14:59 87.5 °F 68.3 °F 29.93 in SE 2.3 mph   53% 0 in 772.00 W/m2
15:04 87.6 °F 68.9 °F 29.94 in SE 8.1 mph 4 mph 54% 0 in 756.00 W/m2
15:09 87.7 °F 69 °F 29.94 in East 5 mph 3.9 mph 54% 0 in 756.00 W/m2
15:14 88 °F 70.9 °F 29.94 in East 4.6 mph 2.9 mph 57% 0 in 744.00 W/m2
15:19 87.9 °F 69.7 °F 29.94 in Calm   0.4 mph 55% 0 in 766.00 W/m2
15:24 88 °F 68.2 °F 29.94 in ESE 8.1 mph 4.6 mph 52% 0 in 745.00 W/m2
15:29 87.9 °F 67.5 °F 29.94 in SE 5.8 mph 5.4 mph 51% 0 in 770.00 W/m2
15:34 87.8 °F 69.1 °F 29.94 in South 3.5 mph 0.3 mph 54% 0 in 761.00 W/m2
15:39 88.2 °F 68.4 °F 29.94 in SSW 1.2 mph 0.4 mph 52% 0 in 735.00 W/m2
15:44 88.6 °F 67 °F 29.95 in SSW 6.9 mph 3.9 mph 49% 0 in 686.00 W/m2
15:49 88.7 °F 66.5 °F 29.94 in North 6.9 mph 5 mph 48% 0 in 686.00 W/m2
15:54 88.8 °F 70 °F 29.95 in ESE 4 mph 3 mph 54% 0 in 675.00 W/m2
15:59 88.6 °F 67.6 °F 29.94 in SSE 2.3 mph   50% 0 in 673.00 W/m2
16:04 88.3 °F 68.4 °F 29.94 in SSE 6.9 mph 4.9 mph 52% 0 in 656.00 W/m2
16:09 88 °F 68.7 °F 29.94 in SE 6.9 mph 3.2 mph 53% 0 in 636.00 W/m2
16:14 87.9 °F 69.2 °F 29.94 in SSE 6.9 mph 2.6 mph 54% 0 in 628.00 W/m2
16:19 87.9 °F 68.6 °F 29.94 in SSE 5.8 mph 3.8 mph 53% 0 in 608.00 W/m2
16:24 87.7 °F 69.5 °F 29.94 in SSE 8.1 mph 5 mph 55% 0 in 594.00 W/m2
16:29 87.8 °F 67.4 °F 29.94 in South 4.6 mph 3.3 mph 51% 0 in 573.00 W/m2
16:34 87.9 °F 69.2 °F 29.94 in SSE 4.6 mph 2.6 mph 54% 0 in 566.00 W/m2
16:39 88 °F 67.6 °F 29.94 in SSW 4.6 mph 1.7 mph 51% 0 in 561.00 W/m2
16:44 88.1 °F 68.3 °F 29.94 in SSE 3.5 mph 3.1 mph 52% 0 in 534.00 W/m2
16:49 87.9 °F 67.5 °F 29.94 in SSE 3.5 mph   51% 0 in 529.00 W/m2
16:54 87.8 °F 68 °F 29.93 in SE 4.6 mph 1.2 mph 52% 0 in 536.00 W/m2
16:59 87.7 °F 70.1 °F 29.93 in SE 6 mph 1.4 mph 56% 0 in 510.00 W/m2
17:04 87.6 °F 67.8 °F 29.93 in Calm     52% 0 in 496.00 W/m2
17:09 87.8 °F 70.1 °F 29.93 in SE 6 mph 3 mph 56% 0 in 457.00 W/m2
17:14 87.7 °F 68.4 °F 29.93 in Calm     53% 0 in 457.00 W/m2
17:19 87.7 °F 69 °F 29.93 in ESE 5.8 mph 0.4 mph 54% 0 in 457.00 W/m2
17:24 87.7 °F 68.4 °F 29.93 in South 3.5 mph 1.7 mph 53% 0 in 424.00 W/m2
17:29 87.6 °F 67.8 °F 29.93 in SSE 5.8 mph 3.6 mph 52% 0 in 380.00 W/m2
17:34 87.2 °F 68 °F 29.93 in South 4.6 mph 1.8 mph 53% 0 in 330.00 W/m2
17:39 87.2 °F 68.5 °F 29.93 in SSE 5 mph 1.8 mph 54% 0 in 318.00 W/m2
17:44 86.8 °F 68.7 °F 29.93 in SSE 3.5 mph 0.1 mph 55% 0 in 301.00 W/m2
17:49 86.5 °F 68.4 °F 29.92 in SSE 3.5 mph 0.4 mph 55% 0 in 341.00 W/m2
17:54 86.6 °F 69.6 °F 29.92 in SSE 5 mph 3.9 mph 57% 0 in 353.00 W/m2
17:59 86.5 °F 68.9 °F 29.92 in SE 6.9 mph 2.8 mph 56% 0 in 336.00 W/m2
18:04 86.4 °F 68.8 °F 29.92 in SSE 8.1 mph 4 mph 56% 0 in 316.00 W/m2
18:09 86.3 °F 69.8 °F 29.92 in SE 3.5 mph 0.8 mph 58% 0 in 311.00 W/m2
18:14 86.4 °F 69.4 °F 29.92 in SE 4.6 mph 4.5 mph 57% 0 in 302.00 W/m2
18:19 86.4 °F 68.8 °F 29.92 in SSE 4.6 mph 4.3 mph 56% 0 in 281.00 W/m2
18:24 86.2 °F 69.7 °F 29.92 in SSE 5.8 mph 4.4 mph 58% 0 in 267.00 W/m2
18:29 85.9 °F 68.4 °F 29.92 in SSE 4.6 mph 3.2 mph 56% 0 in 257.00 W/m2
18:34 85.9 °F 69.4 °F 29.91 in SE 8.1 mph 6.1 mph 58% 0 in 237.00 W/m2
18:39 85.7 °F 69.7 °F 29.91 in SE 3.5 mph 1.6 mph 59% 0 in 223.00 W/m2
18:44 85.5 °F 69.5 °F 29.91 in SE 4.6 mph 2.3 mph 59% 0 in 209.00 W/m2
18:49 85.3 °F 69.3 °F 29.91 in SE 6 mph 4.6 mph 59% 0 in 100.00 W/m2
18:54 84.8 °F 69.4 °F 29.91 in SE 4 mph 0.4 mph 60% 0 in 60.00 W/m2
18:59 84.2 °F 68.3 °F 29.91 in SE 6.9 mph 1.3 mph 59% 0 in 53.00 W/m2
19:04 83.9 °F 69 °F 29.91 in SE 5.8 mph   61% 0 in 72.00 W/m2
19:09 83.6 °F 69.2 °F 29.91 in Calm     62% 0 in 63.00 W/m2
19:14 83.3 °F 69.4 °F 29.91 in Calm     63% 0 in 49.00 W/m2
19:19 83 °F 69.6 °F 29.91 in Calm     64% 0 in 53.00 W/m2
19:24 82.6 °F 69.6 °F 29.91 in Calm     65% 0 in 62.00 W/m2
19:29 82.4 °F 69.9 °F 29.91 in Calm     66% 0 in 37.00 W/m2
19:34 82.1 °F 69.6 °F 29.91 in Calm     66% 0 in 30.00 W/m2
19:39 81.9 °F 69.9 °F 29.91 in Calm     67% 0 in 28.00 W/m2
19:44 81.7 °F 69.7 °F 29.91 in Calm     67% 0 in 28.00 W/m2
19:49 81.5 °F 69.9 °F 29.91 in Calm     68% 0 in 25.00 W/m2
19:54 81.3 °F 69.7 °F 29.91 in Calm     68% 0 in 21.00 W/m2
19:59 81.1 °F 70 °F 29.91 in Calm     69% 0 in 16.00 W/m2
20:04 80.9 °F 70.2 °F 29.91 in Calm     70% 0 in 14.00 W/m2
20:09 80.4 °F 70.1 °F 29.91 in Calm     71% 0 in 7.00 W/m2
20:14 80 °F 70.2 °F 29.91 in Calm     72% 0 in 5.00 W/m2
20:19 79.6 °F 69.4 °F 29.91 in Calm     71% 0 in 0.00 W/m2
20:24 79.5 °F 69.3 °F 29.91 in Calm     71% 0 in 0.00 W/m2
20:29 79.5 °F 69.3 °F 29.91 in Calm     71% 0 in 0.00 W/m2
20:34 79.5 °F 69.7 °F 29.91 in Calm     72% 0 in 0.00 W/m2
20:39 79.3 °F 69.5 °F 29.91 in Calm     72% 0 in 0.00 W/m2
20:44 79.1 °F 69.7 °F 29.91 in Calm     73% 0 in 0.00 W/m2
20:49 78.7 °F 69.7 °F 29.91 in Calm     74% 0 in 0.00 W/m2
20:54 78.3 °F 69.3 °F 29.91 in Calm     74% 0 in 0.00 W/m2
20:59 77.9 °F 69.3 °F 29.91 in Calm     75% 0 in 0.00 W/m2
21:04 77.8 °F 69.2 °F 29.91 in SSE 3.5 mph   75% 0 in 0.00 W/m2
21:09 77.8 °F 69.2 °F 29.92 in Calm     75% 0 in 0.00 W/m2
21:14 77.6 °F 69.4 °F 29.92 in Calm     76% 0 in 0.00 W/m2
21:19 77.5 °F 69.7 °F 29.92 in Calm     77% 0 in 0.00 W/m2
21:24 77.3 °F 69.5 °F 29.92 in Calm     77% 0 in 0.00 W/m2
21:29 77.1 °F 69.7 °F 29.92 in Calm     78% 0 in 0.00 W/m2
21:34 76.8 °F 69.4 °F 29.92 in Calm     78% 0 in 0.00 W/m2
21:39 76.8 °F 69.4 °F 29.92 in Calm     78% 0 in 0.00 W/m2
21:44 76.6 °F 69.2 °F 29.92 in Calm     78% 0 in 0.00 W/m2
21:49 76.4 °F 69.4 °F 29.92 in Calm     79% 0 in 0.00 W/m2
21:54 76.2 °F 69.2 °F 29.92 in Calm     79% 0 in 0.00 W/m2
21:59 76.1 °F 69.1 °F 29.92 in Calm     79% 0 in 0.00 W/m2
22:04 76.1 °F 69.1 °F 29.92 in Calm   0.7 mph 79% 0 in 0.00 W/m2
22:09 76 °F 69.4 °F 29.92 in SSE 4 mph 2.8 mph 80% 0 in 0.00 W/m2
22:14 75.9 °F 69.3 °F 29.92 in SSE 1.2 mph 0.4 mph 80% 0 in 0.00 W/m2
22:19 76 °F 69 °F 29.92 in South 3.5 mph 2 mph 79% 0 in 0.00 W/m2
22:24 76.2 °F 69.2 °F 29.92 in South 3.5 mph   79% 0 in 0.00 W/m2
22:29 76.3 °F 68.9 °F 29.92 in Calm     78% 0 in 0.00 W/m2
22:34 76.3 °F 68.9 °F 29.92 in Calm   1.4 mph 78% 0 in 0.00 W/m2
22:39 76.4 °F 69 °F 29.92 in North 3.5 mph 0.6 mph 78% 0 in 0.00 W/m2
22:44 76.6 °F 68.8 °F 29.92 in South 1.2 mph 0.1 mph 77% 0 in 0.00 W/m2
22:49 76.5 °F 68.7 °F 29.92 in South 3.5 mph 1.7 mph 77% 0 in 0.00 W/m2
22:54 76.5 °F 69.1 °F 29.92 in Calm     78% 0 in 0.00 W/m2
22:59 76.5 °F 68.7 °F 29.92 in SSW 4 mph 1.6 mph 77% 0 in 0.00 W/m2
23:04 76.7 °F 68.9 °F 29.92 in SSW 1.2 mph   77% 0 in 0.00 W/m2
23:09 76.8 °F 69 °F 29.92 in South 4.6 mph 0.7 mph 77% 0 in 0.00 W/m2
23:14 76.9 °F 69.1 °F 29.92 in Calm     77% 0 in 0.00 W/m2
23:19 76.9 °F 69.1 °F 29.93 in Calm     77% 0 in 0.00 W/m2
23:24 76.9 °F 69.1 °F 29.92 in Calm     77% 0 in 0.00 W/m2
23:29 76.7 °F 68.9 °F 29.92 in Calm     77% 0 in 0.00 W/m2
23:34 76.5 °F 69.1 °F 29.92 in Calm     78% 0 in 0.00 W/m2
23:39 76.2 °F 69.2 °F 29.92 in Calm     79% 0 in 0.00 W/m2
23:44 75.9 °F 68.9 °F 29.92 in Calm     79% 0 in 0.00 W/m2
23:49 75.6 °F 69.4 °F 29.92 in Calm     81% 0 in 0.00 W/m2
23:54 75.2 °F 69 °F 29.92 in Calm     81% 0 in 0.00 W/m2
23:59 74.8 °F 69.3 °F 29.92 in Calm     83% 0 in 0.00 W/m2
Bourbonnais, Illinois, USA
Compliments of Weather Underground - 4 mb